sensor_id;sensor_type;location;lat;lon;timestamp;P1;durP1;ratioP1;P2;durP2;ratioP2
34204;SDS011;20471;49.680;20.074;2023-02-22T00:01:57;29.00;;;15.00;;
34204;SDS011;20471;49.680;20.074;2023-02-22T00:04:38;30.00;;;12.70;;
34204;SDS011;20471;49.680;20.074;2023-02-22T00:07:06;31.20;;;14.10;;
34204;SDS011;20471;49.680;20.074;2023-02-22T00:09:35;26.40;;;14.40;;
34204;SDS011;20471;49.680;20.074;2023-02-22T00:12:03;29.00;;;14.40;;
34204;SDS011;20471;49.680;20.074;2023-02-22T00:14:31;27.00;;;13.60;;
34204;SDS011;20471;49.680;20.074;2023-02-22T00:17:00;30.60;;;15.10;;
34204;SDS011;20471;49.680;20.074;2023-02-22T00:19:28;30.10;;;13.50;;
34204;SDS011;20471;49.680;20.074;2023-02-22T00:21:56;29.50;;;13.90;;
34204;SDS011;20471;49.680;20.074;2023-02-22T00:24:25;34.00;;;14.90;;
34204;SDS011;20471;49.680;20.074;2023-02-22T00:26:54;26.40;;;14.20;;
34204;SDS011;20471;49.680;20.074;2023-02-22T00:29:23;32.20;;;14.00;;
34204;SDS011;20471;49.680;20.074;2023-02-22T00:31:52;26.70;;;14.10;;
34204;SDS011;20471;49.680;20.074;2023-02-22T00:34:20;28.50;;;13.30;;
34204;SDS011;20471;49.680;20.074;2023-02-22T00:36:50;33.50;;;15.90;;
34204;SDS011;20471;49.680;20.074;2023-02-22T00:39:18;35.80;;;15.30;;
34204;SDS011;20471;49.680;20.074;2023-02-22T00:41:46;32.40;;;16.30;;
34204;SDS011;20471;49.680;20.074;2023-02-22T00:44:15;33.10;;;15.70;;
34204;SDS011;20471;49.680;20.074;2023-02-22T00:46:43;35.10;;;15.50;;
34204;SDS011;20471;49.680;20.074;2023-02-22T00:49:11;38.60;;;17.60;;
34204;SDS011;20471;49.680;20.074;2023-02-22T00:51:39;39.90;;;16.50;;
34204;SDS011;20471;49.680;20.074;2023-02-22T00:54:07;34.40;;;16.50;;
34204;SDS011;20471;49.680;20.074;2023-02-22T00:56:36;37.80;;;17.70;;
34204;SDS011;20471;49.680;20.074;2023-02-22T00:59:04;37.10;;;17.10;;
34204;SDS011;20471;49.680;20.074;2023-02-22T01:01:32;41.70;;;16.80;;
34204;SDS011;20471;49.680;20.074;2023-02-22T01:04:01;33.50;;;16.50;;
34204;SDS011;20471;49.680;20.074;2023-02-22T01:06:29;37.50;;;17.00;;
34204;SDS011;20471;49.680;20.074;2023-02-22T01:08:57;33.60;;;15.50;;
34204;SDS011;20471;49.680;20.074;2023-02-22T01:11:25;36.60;;;16.60;;
34204;SDS011;20471;49.680;20.074;2023-02-22T01:13:54;37.70;;;16.80;;
34204;SDS011;20471;49.680;20.074;2023-02-22T01:16:23;36.60;;;17.00;;
34204;SDS011;20471;49.680;20.074;2023-02-22T01:18:51;30.70;;;15.90;;
34204;SDS011;20471;49.680;20.074;2023-02-22T01:21:19;35.10;;;17.50;;
34204;SDS011;20471;49.680;20.074;2023-02-22T01:23:47;36.00;;;17.40;;
34204;SDS011;20471;49.680;20.074;2023-02-22T01:26:15;41.30;;;16.70;;
34204;SDS011;20471;49.680;20.074;2023-02-22T01:28:43;28.80;;;15.50;;
34204;SDS011;20471;49.680;20.074;2023-02-22T01:31:11;33.40;;;16.50;;
34204;SDS011;20471;49.680;20.074;2023-02-22T01:33:40;31.30;;;16.10;;
34204;SDS011;20471;49.680;20.074;2023-02-22T01:36:08;35.70;;;16.80;;
34204;SDS011;20471;49.680;20.074;2023-02-22T01:38:37;35.50;;;17.60;;
34204;SDS011;20471;49.680;20.074;2023-02-22T01:41:05;31.10;;;16.20;;
34204;SDS011;20471;49.680;20.074;2023-02-22T01:43:34;33.50;;;14.80;;
34204;SDS011;20471;49.680;20.074;2023-02-22T01:46:04;28.80;;;14.60;;
34204;SDS011;20471;49.680;20.074;2023-02-22T01:48:55;28.80;;;12.70;;
34204;SDS011;20471;49.680;20.074;2023-02-22T01:51:30;32.70;;;14.00;;
34204;SDS011;20471;49.680;20.074;2023-02-22T01:57:01;31.90;;;16.00;;
34204;SDS011;20471;49.680;20.074;2023-02-22T01:59:52;35.20;;;15.80;;
34204;SDS011;20471;49.680;20.074;2023-02-22T02:02:23;34.80;;;15.30;;
34204;SDS011;20471;49.680;20.074;2023-02-22T02:04:53;32.30;;;15.70;;
34204;SDS011;20471;49.680;20.074;2023-02-22T02:07:22;33.50;;;15.50;;
34204;SDS011;20471;49.680;20.074;2023-02-22T02:09:59;29.90;;;14.80;;
34204;SDS011;20471;49.680;20.074;2023-02-22T02:12:31;29.00;;;13.30;;
34204;SDS011;20471;49.680;20.074;2023-02-22T02:17:49;28.10;;;14.50;;
34204;SDS011;20471;49.680;20.074;2023-02-22T02:20:21;31.10;;;14.80;;
34204;SDS011;20471;49.680;20.074;2023-02-22T02:23:07;28.70;;;13.60;;
34204;SDS011;20471;49.680;20.074;2023-02-22T02:31:52;29.10;;;14.50;;
34204;SDS011;20471;49.680;20.074;2023-02-22T02:42:57;32.40;;;15.90;;
34204;SDS011;20471;49.680;20.074;2023-02-22T02:45:39;34.70;;;15.10;;
34204;SDS011;20471;49.680;20.074;2023-02-22T02:48:10;30.60;;;14.90;;
34204;SDS011;20471;49.680;20.074;2023-02-22T02:50:43;30.00;;;15.40;;
34204;SDS011;20471;49.680;20.074;2023-02-22T02:53:17;34.90;;;16.00;;
34204;SDS011;20471;49.680;20.074;2023-02-22T02:55:48;29.00;;;14.90;;
34204;SDS011;20471;49.680;20.074;2023-02-22T02:58:21;31.20;;;14.10;;
34204;SDS011;20471;49.680;20.074;2023-02-22T03:00:51;33.90;;;15.60;;
34204;SDS011;20471;49.680;20.074;2023-02-22T03:03:27;27.60;;;13.70;;
34204;SDS011;20471;49.680;20.074;2023-02-22T03:06:11;27.30;;;12.90;;
34204;SDS011;20471;49.680;20.074;2023-02-22T03:09:01;33.30;;;14.90;;
34204;SDS011;20471;49.680;20.074;2023-02-22T03:11:44;28.90;;;14.50;;
34204;SDS011;20471;49.680;20.074;2023-02-22T03:14:21;28.30;;;14.50;;
34204;SDS011;20471;49.680;20.074;2023-02-22T03:17:03;31.00;;;15.90;;
34204;SDS011;20471;49.680;20.074;2023-02-22T03:19:49;32.30;;;15.30;;
34204;SDS011;20471;49.680;20.074;2023-02-22T03:22:27;33.60;;;14.40;;
34204;SDS011;20471;49.680;20.074;2023-02-22T03:25:01;32.20;;;15.40;;
34204;SDS011;20471;49.680;20.074;2023-02-22T03:30:26;29.00;;;13.60;;
34204;SDS011;20471;49.680;20.074;2023-02-22T03:32:56;27.70;;;13.60;;
34204;SDS011;20471;49.680;20.074;2023-02-22T03:35:34;26.70;;;12.40;;
34204;SDS011;20471;49.680;20.074;2023-02-22T03:38:08;25.70;;;12.90;;
34204;SDS011;20471;49.680;20.074;2023-02-22T03:40:40;25.90;;;13.50;;
34204;SDS011;20471;49.680;20.074;2023-02-22T03:43:13;25.70;;;12.80;;
34204;SDS011;20471;49.680;20.074;2023-02-22T03:45:45;26.40;;;13.50;;
34204;SDS011;20471;49.680;20.074;2023-02-22T03:51:11;30.70;;;14.20;;
34204;SDS011;20471;49.680;20.074;2023-02-22T03:53:41;29.40;;;13.60;;
34204;SDS011;20471;49.680;20.074;2023-02-22T03:56:12;31.90;;;15.60;;
34204;SDS011;20471;49.680;20.074;2023-02-22T03:58:45;32.20;;;14.20;;
34204;SDS011;20471;49.680;20.074;2023-02-22T04:01:15;35.30;;;14.60;;
34204;SDS011;20471;49.680;20.074;2023-02-22T04:03:43;31.70;;;14.30;;
34204;SDS011;20471;49.680;20.074;2023-02-22T04:06:11;33.10;;;14.30;;
34204;SDS011;20471;49.680;20.074;2023-02-22T04:08:39;30.50;;;13.90;;
34204;SDS011;20471;49.680;20.074;2023-02-22T04:11:09;30.50;;;14.30;;
34204;SDS011;20471;49.680;20.074;2023-02-22T04:13:37;35.20;;;14.20;;
34204;SDS011;20471;49.680;20.074;2023-02-22T04:16:06;31.00;;;14.40;;
34204;SDS011;20471;49.680;20.074;2023-02-22T04:18:34;30.40;;;15.20;;
34204;SDS011;20471;49.680;20.074;2023-02-22T04:21:02;34.90;;;15.60;;
34204;SDS011;20471;49.680;20.074;2023-02-22T04:23:30;32.20;;;14.50;;
34204;SDS011;20471;49.680;20.074;2023-02-22T04:25:58;28.40;;;14.70;;
34204;SDS011;20471;49.680;20.074;2023-02-22T04:28:26;32.60;;;14.60;;
34204;SDS011;20471;49.680;20.074;2023-02-22T04:30:54;32.20;;;15.30;;
34204;SDS011;20471;49.680;20.074;2023-02-22T04:33:22;28.30;;;14.60;;
34204;SDS011;20471;49.680;20.074;2023-02-22T04:35:51;31.00;;;16.00;;
34204;SDS011;20471;49.680;20.074;2023-02-22T04:38:19;29.80;;;16.90;;
34204;SDS011;20471;49.680;20.074;2023-02-22T04:40:47;27.80;;;15.20;;
34204;SDS011;20471;49.680;20.074;2023-02-22T04:43:15;30.40;;;16.30;;
34204;SDS011;20471;49.680;20.074;2023-02-22T04:45:43;31.20;;;16.00;;
34204;SDS011;20471;49.680;20.074;2023-02-22T04:48:12;35.20;;;17.30;;
34204;SDS011;20471;49.680;20.074;2023-02-22T04:50:40;32.80;;;16.50;;
34204;SDS011;20471;49.680;20.074;2023-02-22T04:53:08;31.90;;;16.30;;
34204;SDS011;20471;49.680;20.074;2023-02-22T04:55:37;25.70;;;15.90;;
34204;SDS011;20471;49.680;20.074;2023-02-22T04:58:05;33.80;;;16.90;;
34204;SDS011;20471;49.680;20.074;2023-02-22T05:00:33;32.00;;;15.70;;
34204;SDS011;20471;49.680;20.074;2023-02-22T05:03:02;34.10;;;15.30;;
34204;SDS011;20471;49.680;20.074;2023-02-22T05:05:30;34.70;;;16.10;;
34204;SDS011;20471;49.680;20.074;2023-02-22T05:07:58;32.40;;;15.70;;
34204;SDS011;20471;49.680;20.074;2023-02-22T05:10:27;32.60;;;16.90;;
34204;SDS011;20471;49.680;20.074;2023-02-22T05:12:55;34.40;;;15.50;;
34204;SDS011;20471;49.680;20.074;2023-02-22T05:15:23;32.90;;;17.20;;
34204;SDS011;20471;49.680;20.074;2023-02-22T05:17:52;30.50;;;16.30;;
34204;SDS011;20471;49.680;20.074;2023-02-22T05:20:21;35.30;;;18.30;;
34204;SDS011;20471;49.680;20.074;2023-02-22T05:22:53;31.80;;;16.50;;
34204;SDS011;20471;49.680;20.074;2023-02-22T05:25:26;36.50;;;17.00;;
34204;SDS011;20471;49.680;20.074;2023-02-22T05:28:02;37.30;;;17.40;;
34204;SDS011;20471;49.680;20.074;2023-02-22T05:30:33;31.10;;;15.90;;
34204;SDS011;20471;49.680;20.074;2023-02-22T05:33:05;36.10;;;17.10;;
34204;SDS011;20471;49.680;20.074;2023-02-22T05:35:33;37.50;;;17.40;;
34204;SDS011;20471;49.680;20.074;2023-02-22T05:38:02;31.50;;;16.80;;
34204;SDS011;20471;49.680;20.074;2023-02-22T05:40:31;30.80;;;16.60;;
34204;SDS011;20471;49.680;20.074;2023-02-22T05:43:00;32.10;;;15.50;;
34204;SDS011;20471;49.680;20.074;2023-02-22T05:45:28;30.90;;;15.80;;
34204;SDS011;20471;49.680;20.074;2023-02-22T05:47:57;33.90;;;16.90;;
34204;SDS011;20471;49.680;20.074;2023-02-22T05:50:25;34.90;;;18.30;;
34204;SDS011;20471;49.680;20.074;2023-02-22T05:52:53;43.00;;;18.10;;
34204;SDS011;20471;49.680;20.074;2023-02-22T05:55:22;36.60;;;17.30;;
34204;SDS011;20471;49.680;20.074;2023-02-22T05:57:51;33.10;;;17.50;;
34204;SDS011;20471;49.680;20.074;2023-02-22T06:00:28;34.20;;;17.20;;
34204;SDS011;20471;49.680;20.074;2023-02-22T06:02:58;32.40;;;16.90;;
34204;SDS011;20471;49.680;20.074;2023-02-22T06:05:31;31.10;;;15.80;;
34204;SDS011;20471;49.680;20.074;2023-02-22T06:07:59;38.00;;;16.60;;
34204;SDS011;20471;49.680;20.074;2023-02-22T06:10:28;32.40;;;16.80;;
34204;SDS011;20471;49.680;20.074;2023-02-22T06:12:57;33.70;;;17.20;;
34204;SDS011;20471;49.680;20.074;2023-02-22T06:15:27;33.20;;;18.10;;
34204;SDS011;20471;49.680;20.074;2023-02-22T06:17:56;36.90;;;17.90;;
34204;SDS011;20471;49.680;20.074;2023-02-22T06:20:26;37.50;;;18.30;;
34204;SDS011;20471;49.680;20.074;2023-02-22T06:22:55;35.30;;;18.80;;
34204;SDS011;20471;49.680;20.074;2023-02-22T06:25:25;36.70;;;19.10;;
34204;SDS011;20471;49.680;20.074;2023-02-22T06:27:56;44.60;;;21.80;;
34204;SDS011;20471;49.680;20.074;2023-02-22T06:30:26;42.10;;;22.40;;
34204;SDS011;20471;49.680;20.074;2023-02-22T06:32:55;44.80;;;23.90;;
34204;SDS011;20471;49.680;20.074;2023-02-22T06:35:23;46.40;;;24.20;;
34204;SDS011;20471;49.680;20.074;2023-02-22T06:37:52;51.40;;;26.50;;
34204;SDS011;20471;49.680;20.074;2023-02-22T06:40:20;43.20;;;26.20;;
34204;SDS011;20471;49.680;20.074;2023-02-22T06:42:48;51.80;;;29.80;;
34204;SDS011;20471;49.680;20.074;2023-02-22T06:45:16;47.80;;;23.90;;
34204;SDS011;20471;49.680;20.074;2023-02-22T06:47:45;47.30;;;23.20;;
34204;SDS011;20471;49.680;20.074;2023-02-22T06:50:32;38.20;;;21.40;;
34204;SDS011;20471;49.680;20.074;2023-02-22T06:53:01;50.70;;;26.70;;
34204;SDS011;20471;49.680;20.074;2023-02-22T06:55:30;60.70;;;32.00;;
34204;SDS011;20471;49.680;20.074;2023-02-22T06:58:01;53.60;;;30.20;;
34204;SDS011;20471;49.680;20.074;2023-02-22T07:00:31;58.00;;;30.30;;
34204;SDS011;20471;49.680;20.074;2023-02-22T07:02:59;71.00;;;39.30;;
34204;SDS011;20471;49.680;20.074;2023-02-22T07:05:28;68.80;;;36.50;;
34204;SDS011;20471;49.680;20.074;2023-02-22T07:08:00;63.00;;;36.20;;
34204;SDS011;20471;49.680;20.074;2023-02-22T07:10:32;65.30;;;35.80;;
34204;SDS011;20471;49.680;20.074;2023-02-22T07:13:02;79.40;;;40.80;;
34204;SDS011;20471;49.680;20.074;2023-02-22T07:15:32;79.30;;;43.10;;
34204;SDS011;20471;49.680;20.074;2023-02-22T07:18:02;76.40;;;43.60;;
34204;SDS011;20471;49.680;20.074;2023-02-22T07:20:31;77.50;;;43.00;;
34204;SDS011;20471;49.680;20.074;2023-02-22T07:22:59;73.50;;;41.90;;
34204;SDS011;20471;49.680;20.074;2023-02-22T07:25:28;76.00;;;40.60;;
34204;SDS011;20471;49.680;20.074;2023-02-22T07:27:56;76.70;;;40.10;;
34204;SDS011;20471;49.680;20.074;2023-02-22T07:30:26;71.00;;;36.80;;
34204;SDS011;20471;49.680;20.074;2023-02-22T07:32:57;69.60;;;35.10;;
34204;SDS011;20471;49.680;20.074;2023-02-22T07:35:28;56.90;;;30.90;;
34204;SDS011;20471;49.680;20.074;2023-02-22T07:37:58;56.60;;;29.90;;
34204;SDS011;20471;49.680;20.074;2023-02-22T07:40:26;62.90;;;34.40;;
34204;SDS011;20471;49.680;20.074;2023-02-22T07:42:56;69.60;;;35.30;;
34204;SDS011;20471;49.680;20.074;2023-02-22T07:45:27;58.30;;;30.70;;
34204;SDS011;20471;49.680;20.074;2023-02-22T07:47:57;58.90;;;29.70;;
34204;SDS011;20471;49.680;20.074;2023-02-22T07:50:27;62.80;;;32.80;;
34204;SDS011;20471;49.680;20.074;2023-02-22T07:52:57;53.40;;;30.50;;
34204;SDS011;20471;49.680;20.074;2023-02-22T07:55:29;60.50;;;30.10;;
34204;SDS011;20471;49.680;20.074;2023-02-22T07:57:59;62.70;;;31.20;;
34204;SDS011;20471;49.680;20.074;2023-02-22T08:00:37;71.40;;;35.70;;
34204;SDS011;20471;49.680;20.074;2023-02-22T08:03:08;68.90;;;34.30;;
34204;SDS011;20471;49.680;20.074;2023-02-22T08:05:39;64.10;;;32.80;;
34204;SDS011;20471;49.680;20.074;2023-02-22T08:08:09;71.20;;;33.70;;
34204;SDS011;20471;49.680;20.074;2023-02-22T08:10:37;63.00;;;31.20;;
34204;SDS011;20471;49.680;20.074;2023-02-22T08:13:06;61.10;;;28.40;;
34204;SDS011;20471;49.680;20.074;2023-02-22T08:15:38;57.70;;;29.50;;
34204;SDS011;20471;49.680;20.074;2023-02-22T08:18:12;66.10;;;29.50;;
34204;SDS011;20471;49.680;20.074;2023-02-22T08:20:43;56.20;;;27.50;;
34204;SDS011;20471;49.680;20.074;2023-02-22T08:23:12;50.00;;;26.90;;
34204;SDS011;20471;49.680;20.074;2023-02-22T08:25:41;49.10;;;26.30;;
34204;SDS011;20471;49.680;20.074;2023-02-22T08:28:14;65.70;;;29.50;;
34204;SDS011;20471;49.680;20.074;2023-02-22T08:30:43;60.20;;;30.40;;
34204;SDS011;20471;49.680;20.074;2023-02-22T08:33:12;62.10;;;31.20;;
34204;SDS011;20471;49.680;20.074;2023-02-22T08:35:45;72.70;;;29.70;;
34204;SDS011;20471;49.680;20.074;2023-02-22T08:38:16;62.70;;;30.20;;
34204;SDS011;20471;49.680;20.074;2023-02-22T08:40:47;81.60;;;37.40;;
34204;SDS011;20471;49.680;20.074;2023-02-22T08:43:16;63.60;;;36.70;;
34204;SDS011;20471;49.680;20.074;2023-02-22T08:45:45;62.40;;;33.40;;
34204;SDS011;20471;49.680;20.074;2023-02-22T08:48:14;62.10;;;30.60;;
34204;SDS011;20471;49.680;20.074;2023-02-22T08:50:43;53.20;;;27.50;;
34204;SDS011;20471;49.680;20.074;2023-02-22T08:53:13;59.70;;;27.40;;
34204;SDS011;20471;49.680;20.074;2023-02-22T08:55:43;50.60;;;23.00;;
34204;SDS011;20471;49.680;20.074;2023-02-22T08:58:12;45.70;;;18.50;;
34204;SDS011;20471;49.680;20.074;2023-02-22T09:00:41;38.60;;;19.30;;
34204;SDS011;20471;49.680;20.074;2023-02-22T09:03:10;46.10;;;19.30;;
34204;SDS011;20471;49.680;20.074;2023-02-22T09:05:41;43.80;;;20.10;;
34204;SDS011;20471;49.680;20.074;2023-02-22T09:08:10;44.10;;;21.90;;
34204;SDS011;20471;49.680;20.074;2023-02-22T09:10:39;51.20;;;23.20;;
34204;SDS011;20471;49.680;20.074;2023-02-22T09:13:07;42.40;;;19.80;;
34204;SDS011;20471;49.680;20.074;2023-02-22T09:15:36;41.40;;;18.00;;
34204;SDS011;20471;49.680;20.074;2023-02-22T09:18:06;37.00;;;17.50;;
34204;SDS011;20471;49.680;20.074;2023-02-22T09:20:35;41.00;;;17.00;;
34204;SDS011;20471;49.680;20.074;2023-02-22T09:23:04;43.30;;;19.30;;
34204;SDS011;20471;49.680;20.074;2023-02-22T09:25:35;32.90;;;13.80;;
34204;SDS011;20471;49.680;20.074;2023-02-22T09:28:04;27.90;;;10.80;;
34204;SDS011;20471;49.680;20.074;2023-02-22T09:30:33;33.40;;;9.80;;
34204;SDS011;20471;49.680;20.074;2023-02-22T09:33:03;23.90;;;8.30;;
34204;SDS011;20471;49.680;20.074;2023-02-22T09:35:35;20.70;;;7.60;;
34204;SDS011;20471;49.680;20.074;2023-02-22T09:38:07;26.20;;;7.60;;
34204;SDS011;20471;49.680;20.074;2023-02-22T09:40:38;19.80;;;8.40;;
34204;SDS011;20471;49.680;20.074;2023-02-22T09:48:49;28.20;;;8.30;;
34204;SDS011;20471;49.680;20.074;2023-02-22T09:51:28;26.90;;;8.30;;
34204;SDS011;20471;49.680;20.074;2023-02-22T09:54:02;24.60;;;8.80;;
34204;SDS011;20471;49.680;20.074;2023-02-22T09:56:36;34.10;;;8.80;;
34204;SDS011;20471;49.680;20.074;2023-02-22T09:59:06;29.60;;;9.40;;
34204;SDS011;20471;49.680;20.074;2023-02-22T10:01:39;23.80;;;8.60;;
34204;SDS011;20471;49.680;20.074;2023-02-22T10:04:29;23.50;;;7.40;;
34204;SDS011;20471;49.680;20.074;2023-02-22T10:07:39;21.70;;;6.30;;
34204;SDS011;20471;49.680;20.074;2023-02-22T10:10:14;21.20;;;5.90;;
34204;SDS011;20471;49.680;20.074;2023-02-22T10:20:53;20.80;;;7.60;;
34204;SDS011;20471;49.680;20.074;2023-02-22T10:26:13;26.20;;;9.50;;
34204;SDS011;20471;49.680;20.074;2023-02-22T10:28:58;23.60;;;7.30;;
34204;SDS011;20471;49.680;20.074;2023-02-22T10:31:29;17.20;;;6.60;;
34204;SDS011;20471;49.680;20.074;2023-02-22T10:34:03;21.90;;;6.00;;
34204;SDS011;20471;49.680;20.074;2023-02-22T10:36:58;24.90;;;7.10;;
34204;SDS011;20471;49.680;20.074;2023-02-22T10:39:35;24.60;;;6.00;;
34204;SDS011;20471;49.680;20.074;2023-02-22T10:42:06;21.30;;;6.50;;
34204;SDS011;20471;49.680;20.074;2023-02-22T10:44:35;19.50;;;8.60;;
34204;SDS011;20471;49.680;20.074;2023-02-22T10:47:06;21.80;;;6.50;;
34204;SDS011;20471;49.680;20.074;2023-02-22T10:49:42;20.40;;;6.20;;
34204;SDS011;20471;49.680;20.074;2023-02-22T10:52:21;21.30;;;6.60;;
34204;SDS011;20471;49.680;20.074;2023-02-22T10:54:55;21.30;;;6.80;;
34204;SDS011;20471;49.680;20.074;2023-02-22T10:57:34;22.90;;;7.60;;
34204;SDS011;20471;49.680;20.074;2023-02-22T11:02:52;25.60;;;11.10;;
34204;SDS011;20471;49.680;20.074;2023-02-22T11:05:35;18.60;;;7.30;;
34204;SDS011;20471;49.680;20.074;2023-02-22T11:08:17;22.70;;;7.10;;
34204;SDS011;20471;49.680;20.074;2023-02-22T11:10:53;21.60;;;6.60;;
34204;SDS011;20471;49.680;20.074;2023-02-22T11:16:16;24.10;;;7.90;;
34204;SDS011;20471;49.680;20.074;2023-02-22T11:18:46;20.50;;;6.80;;
34204;SDS011;20471;49.680;20.074;2023-02-22T11:21:20;21.90;;;6.30;;
34204;SDS011;20471;49.680;20.074;2023-02-22T11:23:50;21.30;;;6.20;;
34204;SDS011;20471;49.680;20.074;2023-02-22T11:26:44;22.40;;;6.10;;
34204;SDS011;20471;49.680;20.074;2023-02-22T11:31:57;20.40;;;8.10;;
34204;SDS011;20471;49.680;20.074;2023-02-22T11:34:34;23.50;;;6.80;;
34204;SDS011;20471;49.680;20.074;2023-02-22T11:39:51;28.20;;;11.00;;
34204;SDS011;20471;49.680;20.074;2023-02-22T11:42:38;36.50;;;18.80;;
34204;SDS011;20471;49.680;20.074;2023-02-22T11:48:00;23.30;;;7.30;;
34204;SDS011;20471;49.680;20.074;2023-02-22T11:50:38;18.00;;;6.50;;
34204;SDS011;20471;49.680;20.074;2023-02-22T11:56:05;20.20;;;6.40;;
34204;SDS011;20471;49.680;20.074;2023-02-22T12:01:27;18.80;;;6.20;;
34204;SDS011;20471;49.680;20.074;2023-02-22T12:09:39;18.70;;;6.60;;
34204;SDS011;20471;49.680;20.074;2023-02-22T12:12:20;17.40;;;5.60;;
34204;SDS011;20471;49.680;20.074;2023-02-22T12:15:20;17.90;;;5.60;;
34204;SDS011;20471;49.680;20.074;2023-02-22T12:20:23;13.90;;;5.90;;
34204;SDS011;20471;49.680;20.074;2023-02-22T12:22:58;17.70;;;6.30;;
34204;SDS011;20471;49.680;20.074;2023-02-22T12:25:51;18.10;;;6.00;;
34204;SDS011;20471;49.680;20.074;2023-02-22T12:28:31;16.40;;;5.80;;
34204;SDS011;20471;49.680;20.074;2023-02-22T12:33:56;22.50;;;6.00;;
34204;SDS011;20471;49.680;20.074;2023-02-22T12:36:37;21.30;;;6.40;;
34204;SDS011;20471;49.680;20.074;2023-02-22T12:42:01;20.30;;;6.80;;
34204;SDS011;20471;49.680;20.074;2023-02-22T12:44:40;24.90;;;7.00;;
34204;SDS011;20471;49.680;20.074;2023-02-22T12:47:15;25.00;;;9.40;;
34204;SDS011;20471;49.680;20.074;2023-02-22T12:49:52;23.70;;;8.20;;
34204;SDS011;20471;49.680;20.074;2023-02-22T12:55:17;22.60;;;6.90;;
34204;SDS011;20471;49.680;20.074;2023-02-22T12:58:04;22.60;;;6.90;;
34204;SDS011;20471;49.680;20.074;2023-02-22T13:00:42;23.70;;;7.80;;
34204;SDS011;20471;49.680;20.074;2023-02-22T13:06:08;16.00;;;6.30;;
34204;SDS011;20471;49.680;20.074;2023-02-22T13:16:57;20.30;;;7.10;;
34204;SDS011;20471;49.680;20.074;2023-02-22T13:25:14;20.00;;;6.40;;
34204;SDS011;20471;49.680;20.074;2023-02-22T13:28:12;18.30;;;7.20;;
34204;SDS011;20471;49.680;20.074;2023-02-22T13:30:59;22.00;;;6.90;;
34204;SDS011;20471;49.680;20.074;2023-02-22T13:44:30;18.90;;;7.20;;
34204;SDS011;20471;49.680;20.074;2023-02-22T13:47:21;18.70;;;7.00;;
34204;SDS011;20471;49.680;20.074;2023-02-22T13:50:08;21.10;;;7.60;;
34204;SDS011;20471;49.680;20.074;2023-02-22T13:52:55;24.30;;;7.40;;
34204;SDS011;20471;49.680;20.074;2023-02-22T13:55:27;22.20;;;8.20;;
34204;SDS011;20471;49.680;20.074;2023-02-22T13:58:06;17.40;;;6.60;;
34204;SDS011;20471;49.680;20.074;2023-02-22T14:00:40;18.80;;;6.80;;
34204;SDS011;20471;49.680;20.074;2023-02-22T14:06:02;23.40;;;7.50;;
34204;SDS011;20471;49.680;20.074;2023-02-22T14:11:00;19.80;;;7.00;;
34204;SDS011;20471;49.680;20.074;2023-02-22T14:16:27;20.20;;;6.30;;
34204;SDS011;20471;49.680;20.074;2023-02-22T14:19:20;14.00;;;5.90;;
34204;SDS011;20471;49.680;20.074;2023-02-22T14:21:54;20.70;;;6.70;;
34204;SDS011;20471;49.680;20.074;2023-02-22T14:24:29;20.40;;;6.80;;
34204;SDS011;20471;49.680;20.074;2023-02-22T14:27:09;22.40;;;7.00;;
34204;SDS011;20471;49.680;20.074;2023-02-22T14:29:47;18.70;;;7.00;;
34204;SDS011;20471;49.680;20.074;2023-02-22T14:32:28;18.30;;;6.90;;
34204;SDS011;20471;49.680;20.074;2023-02-22T14:35:05;21.10;;;7.40;;
34204;SDS011;20471;49.680;20.074;2023-02-22T14:37:41;19.30;;;6.90;;
34204;SDS011;20471;49.680;20.074;2023-02-22T14:40:18;17.70;;;6.70;;
34204;SDS011;20471;49.680;20.074;2023-02-22T14:43:05;24.40;;;7.70;;
34204;SDS011;20471;49.680;20.074;2023-02-22T14:45:44;61.80;;;31.00;;
34204;SDS011;20471;49.680;20.074;2023-02-22T14:48:23;58.90;;;30.40;;
34204;SDS011;20471;49.680;20.074;2023-02-22T14:51:06;47.80;;;24.80;;
34204;SDS011;20471;49.680;20.074;2023-02-22T14:53:46;25.50;;;12.30;;
34204;SDS011;20471;49.680;20.074;2023-02-22T14:59:17;21.60;;;7.30;;
34204;SDS011;20471;49.680;20.074;2023-02-22T15:01:56;23.30;;;7.50;;
34204;SDS011;20471;49.680;20.074;2023-02-22T15:07:00;18.40;;;6.90;;
34204;SDS011;20471;49.680;20.074;2023-02-22T15:09:46;18.40;;;7.60;;
34204;SDS011;20471;49.680;20.074;2023-02-22T15:12:25;22.00;;;7.70;;
34204;SDS011;20471;49.680;20.074;2023-02-22T15:17:59;18.70;;;7.40;;
34204;SDS011;20471;49.680;20.074;2023-02-22T15:20:30;32.00;;;15.90;;
34204;SDS011;20471;49.680;20.074;2023-02-22T15:23:00;27.10;;;17.70;;
34204;SDS011;20471;49.680;20.074;2023-02-22T15:25:28;25.10;;;12.40;;
34204;SDS011;20471;49.680;20.074;2023-02-22T15:27:59;25.50;;;11.10;;
34204;SDS011;20471;49.680;20.074;2023-02-22T15:30:31;29.60;;;13.80;;
34204;SDS011;20471;49.680;20.074;2023-02-22T15:33:10;29.20;;;11.90;;
34204;SDS011;20471;49.680;20.074;2023-02-22T15:35:56;27.00;;;12.90;;
34204;SDS011;20471;49.680;20.074;2023-02-22T15:38:28;29.30;;;12.00;;
34204;SDS011;20471;49.680;20.074;2023-02-22T15:40:58;23.30;;;12.00;;
34204;SDS011;20471;49.680;20.074;2023-02-22T15:43:28;27.30;;;12.30;;
34204;SDS011;20471;49.680;20.074;2023-02-22T15:45:57;30.70;;;11.20;;
34204;SDS011;20471;49.680;20.074;2023-02-22T15:48:27;29.40;;;11.60;;
34204;SDS011;20471;49.680;20.074;2023-02-22T15:50:58;24.00;;;10.30;;
34204;SDS011;20471;49.680;20.074;2023-02-22T15:53:31;26.20;;;11.10;;
34204;SDS011;20471;49.680;20.074;2023-02-22T15:56:08;22.10;;;9.50;;
34204;SDS011;20471;49.680;20.074;2023-02-22T15:58:41;30.90;;;13.70;;
34204;SDS011;20471;49.680;20.074;2023-02-22T16:01:13;30.60;;;17.70;;
34204;SDS011;20471;49.680;20.074;2023-02-22T16:03:45;38.50;;;15.00;;
34204;SDS011;20471;49.680;20.074;2023-02-22T16:09:06;34.50;;;15.10;;
34204;SDS011;20471;49.680;20.074;2023-02-22T16:11:36;36.10;;;13.20;;
34204;SDS011;20471;49.680;20.074;2023-02-22T16:14:28;28.40;;;12.20;;
34204;SDS011;20471;49.680;20.074;2023-02-22T16:17:11;24.30;;;10.90;;
34204;SDS011;20471;49.680;20.074;2023-02-22T16:19:56;38.50;;;15.80;;
34204;SDS011;20471;49.680;20.074;2023-02-22T16:22:34;33.30;;;13.90;;
34204;SDS011;20471;49.680;20.074;2023-02-22T16:27:48;28.00;;;10.70;;
34204;SDS011;20471;49.680;20.074;2023-02-22T16:32:49;25.30;;;11.60;;
34204;SDS011;20471;49.680;20.074;2023-02-22T16:35:19;23.70;;;11.80;;
34204;SDS011;20471;49.680;20.074;2023-02-22T16:38:01;26.90;;;10.50;;
34204;SDS011;20471;49.680;20.074;2023-02-22T16:40:33;25.20;;;9.80;;
34204;SDS011;20471;49.680;20.074;2023-02-22T16:45:34;45.30;;;25.60;;
34204;SDS011;20471;49.680;20.074;2023-02-22T16:48:16;94.10;;;51.20;;
34204;SDS011;20471;49.680;20.074;2023-02-22T16:50:48;60.60;;;36.30;;
34204;SDS011;20471;49.680;20.074;2023-02-22T16:53:18;49.70;;;26.10;;
34204;SDS011;20471;49.680;20.074;2023-02-22T16:55:50;43.80;;;23.70;;
34204;SDS011;20471;49.680;20.074;2023-02-22T16:58:23;43.30;;;21.40;;